createdAt,value
2023-03-26T00:01:39.001Z,97144.13
2023-03-26T00:04:06.749Z,97138.81
2023-03-26T00:06:36.752Z,97139.09
2023-03-26T00:09:04.411Z,97136.38
2023-03-26T00:11:30.994Z,97142.19
2023-03-26T00:13:57.914Z,97147.72
2023-03-26T00:16:25.775Z,97140.66
2023-03-26T00:18:53.473Z,97136.53
2023-03-26T00:21:21.706Z,97137.06
2023-03-26T00:23:49.162Z,97133.69
2023-03-26T00:26:17.428Z,97131.47
2023-03-26T00:28:43.962Z,97133.34
2023-03-26T00:31:14.658Z,97138.50
2023-03-26T00:33:41.787Z,97141.84
2023-03-26T00:36:10.496Z,97131.81
2023-03-26T00:38:39.115Z,97135.31
2023-03-26T00:41:07.139Z,97122.22
2023-03-26T00:43:35.290Z,97130.50
2023-03-26T00:46:02.302Z,97123.69
2023-03-26T00:48:44.526Z,97125.41
2023-03-26T00:51:12.798Z,97123.66
2023-03-26T00:53:41.252Z,97121.47
2023-03-26T00:56:08.572Z,97127.97
2023-03-26T00:58:35.671Z,97117.38
2023-03-26T01:01:04.212Z,97124.91
2023-03-26T01:03:35.341Z,97128.22
2023-03-26T01:06:11.283Z,97120.94
2023-03-26T01:08:42.791Z,97120.34
2023-03-26T01:11:14.533Z,97113.75
2023-03-26T01:13:51.243Z,97110.34
2023-03-26T01:16:21.323Z,97116.63
2023-03-26T01:18:48.619Z,97106.47
2023-03-26T01:21:22.505Z,97094.72
2023-03-26T01:23:57.234Z,97097.22
2023-03-26T01:26:24.355Z,97095.03
2023-03-26T01:28:54.540Z,97083.38
2023-03-26T01:31:37.173Z,97093.25
2023-03-26T01:34:12.302Z,97079.66
2023-03-26T01:36:46.952Z,97078.66
2023-03-26T01:39:22.093Z,97081.25
2023-03-26T01:41:55.600Z,97077.06
2023-03-26T01:44:37.374Z,97075.25
2023-03-26T01:47:05.248Z,97081.88
2023-03-26T01:49:31.852Z,97072.56
2023-03-26T01:51:58.505Z,97062.06
2023-03-26T01:54:26.939Z,97061.41
2023-03-26T01:57:15.491Z,97064.59
2023-03-26T02:00:01.891Z,97055.03
2023-03-26T02:02:39.210Z,97054.00
2023-03-26T02:05:15.294Z,97061.25
2023-03-26T02:07:41.783Z,97075.84
2023-03-26T02:10:21.136Z,97076.03
2023-03-26T02:12:47.738Z,97079.19
2023-03-26T02:15:14.193Z,97080.34
2023-03-26T02:17:40.859Z,97071.06
2023-03-26T02:20:09.960Z,97071.28
2023-03-26T02:22:40.742Z,97067.34
2023-03-26T02:25:09.626Z,97066.88
2023-03-26T02:27:36.723Z,97059.25
2023-03-26T02:30:07.282Z,97065.53
2023-03-26T02:32:35.035Z,97063.44
2023-03-26T02:35:02.342Z,97058.34
2023-03-26T02:37:30.732Z,97071.53
2023-03-26T02:40:11.005Z,97069.56
2023-03-26T02:42:40.202Z,97070.31
2023-03-26T02:45:07.011Z,97070.81
2023-03-26T02:48:02.555Z,97080.75
2023-03-26T02:50:37.979Z,97078.78
2023-03-26T02:53:30.796Z,97074.31
2023-03-26T02:56:29.816Z,97078.47
2023-03-26T02:59:09.080Z,97074.38
2023-03-26T03:01:36.934Z,97073.22
2023-03-26T03:04:04.271Z,97081.69
2023-03-26T03:06:40.560Z,97079.78
2023-03-26T03:09:08.610Z,97078.44
2023-03-26T03:11:35.547Z,97080.34
2023-03-26T03:14:02.476Z,97076.91
2023-03-26T03:16:31.030Z,97086.78
2023-03-26T03:19:02.956Z,97083.66
2023-03-26T03:21:39.580Z,97087.53
2023-03-26T03:24:07.531Z,97082.44
2023-03-26T03:26:42.321Z,97070.47
2023-03-26T03:29:20.568Z,97072.28
2023-03-26T03:31:47.715Z,97076.91
2023-03-26T03:34:38.580Z,97056.28
2023-03-26T03:37:05.863Z,97070.22
2023-03-26T03:39:41.140Z,97064.53
2023-03-26T03:42:08.384Z,97081.22
2023-03-26T03:44:38.081Z,97077.00
2023-03-26T03:47:13.845Z,97069.97
2023-03-26T03:49:41.244Z,97079.75
2023-03-26T03:52:08.047Z,97080.50
2023-03-26T03:54:39.630Z,97080.50
2023-03-26T03:57:28.596Z,97077.09
2023-03-26T03:59:59.506Z,97075.75
2023-03-26T04:02:34.604Z,97081.44
2023-03-26T04:05:06.016Z,97097.66
2023-03-26T04:07:32.964Z,97099.09
2023-03-26T04:10:06.685Z,97084.38
2023-03-26T04:12:55.808Z,97094.28
2023-03-26T04:15:42.882Z,97092.59
2023-03-26T04:18:12.819Z,97096.09
2023-03-26T04:20:46.807Z,97093.78
2023-03-26T04:23:19.601Z,97094.00
2023-03-26T04:25:53.467Z,97091.13
2023-03-26T04:28:28.763Z,97096.94
2023-03-26T04:31:24.123Z,97094.97
2023-03-26T04:33:56.346Z,97089.91
2023-03-26T04:36:27.082Z,97084.84
2023-03-26T04:38:54.127Z,97083.63
2023-03-26T04:41:27.380Z,97076.97
2023-03-26T04:44:01.842Z,97079.78
2023-03-26T04:46:28.829Z,97074.47
2023-03-26T04:49:05.461Z,97073.00
2023-03-26T04:51:38.124Z,97070.22
2023-03-26T04:54:12.693Z,97076.38
2023-03-26T04:56:52.660Z,97070.22
2023-03-26T04:59:34.566Z,97076.16
2023-03-26T05:02:05.108Z,97075.53
2023-03-26T05:04:43.633Z,97071.31
2023-03-26T05:07:11.148Z,97064.53
2023-03-26T05:09:45.697Z,97058.75
2023-03-26T05:12:16.558Z,97065.00
2023-03-26T05:14:55.897Z,97055.97
2023-03-26T05:17:43.628Z,97045.91
2023-03-26T05:20:20.767Z,97047.13
2023-03-26T05:22:48.037Z,97051.00
2023-03-26T05:25:20.805Z,97055.38
2023-03-26T05:27:48.278Z,97049.06
2023-03-26T05:30:16.398Z,97047.59
2023-03-26T05:32:48.770Z,97053.59
2023-03-26T05:35:18.478Z,97046.44
2023-03-26T05:37:45.982Z,97051.88
2023-03-26T05:40:14.773Z,97046.78
2023-03-26T05:42:46.017Z,97047.00
2023-03-26T05:45:47.213Z,97040.75
2023-03-26T05:48:25.451Z,97033.81
2023-03-26T05:50:53.827Z,97032.44
2023-03-26T05:53:21.514Z,97039.13
2023-03-26T05:56:06.965Z,97047.75
2023-03-26T05:58:59.534Z,97051.31
2023-03-26T06:01:46.233Z,97055.47
2023-03-26T06:04:32.072Z,97045.56
2023-03-26T06:07:18.780Z,97046.31
2023-03-26T06:09:56.377Z,97047.28
2023-03-26T06:12:22.940Z,97039.03
2023-03-26T06:14:49.485Z,97039.28
2023-03-26T06:17:19.371Z,97042.66
2023-03-26T06:20:09.253Z,97049.25
2023-03-26T06:22:42.136Z,97040.31
2023-03-26T06:25:24.575Z,97053.09
2023-03-26T06:28:06.052Z,97056.28
2023-03-26T06:31:01.832Z,97043.22
2023-03-26T06:33:37.352Z,97041.03
2023-03-26T06:36:04.780Z,97031.19
2023-03-26T06:38:31.362Z,97041.44
2023-03-26T06:41:04.561Z,97040.72
2023-03-26T06:44:00.276Z,97040.00
2023-03-26T06:46:55.908Z,97035.25
2023-03-26T06:49:43.115Z,97033.50
2023-03-26T06:52:35.899Z,97037.16
2023-03-26T06:55:22.973Z,97057.50
2023-03-26T06:58:11.431Z,97045.63
2023-03-26T07:00:56.910Z,97048.16
2023-03-26T07:03:41.991Z,97036.34
2023-03-26T07:06:27.117Z,97035.50
2023-03-26T07:09:12.410Z,97024.78
2023-03-26T07:11:41.547Z,97017.44
2023-03-26T07:14:27.993Z,97001.84
2023-03-26T07:17:20.661Z,96990.59
2023-03-26T07:20:08.088Z,96987.50
2023-03-26T07:22:35.129Z,96989.97
2023-03-26T07:25:04.754Z,96998.97
2023-03-26T07:28:00.211Z,96997.78
2023-03-26T07:30:43.660Z,97002.50
2023-03-26T07:33:28.593Z,96993.50
2023-03-26T07:36:25.075Z,97000.06
2023-03-26T07:39:14.471Z,96985.34
2023-03-26T07:42:05.896Z,96981.53
2023-03-26T07:44:51.048Z,96987.13
2023-03-26T07:47:33.668Z,96984.06
2023-03-26T07:50:25.423Z,96978.19
2023-03-26T07:53:09.135Z,96964.50
2023-03-26T07:56:02.822Z,96967.75
2023-03-26T07:58:55.708Z,96955.72
2023-03-26T08:01:51.466Z,96946.69
2023-03-26T08:04:42.506Z,96949.31
2023-03-26T08:07:39.509Z,96945.72
2023-03-26T08:10:26.173Z,96948.22
2023-03-26T08:13:10.804Z,96949.94
2023-03-26T08:15:43.979Z,96944.75
2023-03-26T08:18:13.720Z,96947.28
2023-03-26T08:20:44.848Z,96941.75
2023-03-26T08:23:11.266Z,96943.44
2023-03-26T08:25:52.626Z,96940.44
2023-03-26T08:28:28.239Z,96939.91
2023-03-26T08:30:57.762Z,96943.41
2023-03-26T08:33:27.040Z,96945.72
2023-03-26T08:35:53.575Z,96944.22
2023-03-26T08:38:20.926Z,96941.59
2023-03-26T08:40:50.443Z,96936.81
2023-03-26T08:43:35.805Z,96937.88
2023-03-26T08:46:12.713Z,96928.16
2023-03-26T08:48:57.944Z,96935.22
2023-03-26T08:51:27.840Z,96921.56
2023-03-26T08:54:15.604Z,96911.03
2023-03-26T08:56:42.316Z,96909.56
2023-03-26T08:59:21.413Z,96901.19
2023-03-26T09:01:50.981Z,96898.91
2023-03-26T09:04:38.276Z,96887.66
2023-03-26T09:07:20.420Z,96877.75
2023-03-26T09:10:03.030Z,96874.53
2023-03-26T09:12:44.663Z,96872.97
2023-03-26T09:15:40.388Z,96865.16
2023-03-26T09:18:06.921Z,96863.06
2023-03-26T09:20:54.629Z,96856.03
2023-03-26T09:23:31.868Z,96860.88
2023-03-26T09:26:15.485Z,96864.19
2023-03-26T09:29:02.962Z,96857.06
2023-03-26T09:31:29.417Z,96852.41
2023-03-26T09:34:03.110Z,96831.09
2023-03-26T09:36:44.946Z,96827.78
2023-03-26T09:39:27.960Z,96821.34
2023-03-26T09:42:12.960Z,96812.31
2023-03-26T09:44:58.113Z,96799.53
2023-03-26T09:47:38.458Z,96788.53
2023-03-26T09:50:24.192Z,96785.53
2023-03-26T09:52:59.688Z,96784.41
2023-03-26T09:55:26.168Z,96783.78
2023-03-26T09:57:54.187Z,96800.53
2023-03-26T10:00:24.017Z,96782.00
2023-03-26T10:03:03.894Z,96784.84
2023-03-26T10:05:41.360Z,96779.00
2023-03-26T10:08:11.128Z,96765.41
2023-03-26T10:10:43.743Z,96756.63
2023-03-26T10:13:19.285Z,96749.66
2023-03-26T10:16:07.171Z,96746.81
2023-03-26T10:18:36.608Z,96750.56
2023-03-26T10:21:07.039Z,96740.63
2023-03-26T10:23:54.014Z,96731.81
2023-03-26T10:26:28.849Z,96729.44
2023-03-26T10:29:08.709Z,96732.31
2023-03-26T10:31:38.207Z,96725.84
2023-03-26T10:34:29.225Z,96710.28
2023-03-26T10:37:16.143Z,96713.22
2023-03-26T10:39:43.616Z,96707.09
2023-03-26T10:42:13.166Z,96715.97
2023-03-26T10:45:02.897Z,96721.75
2023-03-26T10:47:34.962Z,96712.75
2023-03-26T10:50:25.587Z,96709.44
2023-03-26T10:53:10.253Z,96705.06
2023-03-26T10:55:48.257Z,96701.72
2023-03-26T10:58:20.444Z,96695.00
2023-03-26T11:00:56.789Z,96690.19
2023-03-26T11:03:30.044Z,96686.06
2023-03-26T11:06:00.367Z,96689.28
2023-03-26T11:08:35.509Z,96688.56
2023-03-26T11:11:05.287Z,96688.97
2023-03-26T11:13:55.566Z,96669.75
2023-03-26T11:16:28.171Z,96667.88
2023-03-26T11:19:09.801Z,96646.56
2023-03-26T11:21:43.147Z,96643.59
2023-03-26T11:24:28.622Z,96664.66
2023-03-26T11:26:57.845Z,96642.91
2023-03-26T11:30:01.219Z,96630.97
2023-03-26T11:32:35.550Z,96619.88
2023-03-26T11:35:08.216Z,96615.97
2023-03-26T11:37:46.919Z,96614.50
2023-03-26T11:40:16.271Z,96605.44
2023-03-26T11:42:43.621Z,96603.13
2023-03-26T11:45:31.743Z,96598.59
2023-03-26T11:48:15.035Z,96605.19
2023-03-26T11:50:47.105Z,96588.91
2023-03-26T11:53:18.593Z,96586.56
2023-03-26T11:55:53.680Z,96577.31
2023-03-26T11:58:39.053Z,96574.34
2023-03-26T12:01:13.182Z,96553.19
2023-03-26T12:03:40.499Z,96552.78
2023-03-26T12:06:22.610Z,96547.22
2023-03-26T12:08:49.904Z,96527.50
2023-03-26T12:11:18.369Z,96535.25
2023-03-26T12:13:51.121Z,96536.41
2023-03-26T12:16:19.539Z,96520.75
2023-03-26T12:18:47.441Z,96509.06
2023-03-26T12:21:15.406Z,96506.13
2023-03-26T12:23:56.384Z,96498.19
2023-03-26T12:26:37.484Z,96488.06
2023-03-26T12:29:09.069Z,96487.06
2023-03-26T12:31:54.338Z,96482.53
2023-03-26T12:34:22.371Z,96479.53
2023-03-26T12:36:54.503Z,96476.63
2023-03-26T12:40:07.795Z,96470.72
2023-03-26T12:44:44.921Z,96464.50
2023-03-26T12:45:23.821Z,96459.56
2023-03-26T12:48:00.068Z,96456.16
2023-03-26T12:50:51.800Z,96451.66
2023-03-26T12:53:33.469Z,96445.69
2023-03-26T12:56:08.577Z,96444.41
2023-03-26T12:58:44.971Z,96436.91
2023-03-26T13:01:28.290Z,96436.84
2023-03-26T13:04:04.025Z,96433.66
2023-03-26T13:06:30.547Z,96430.47
2023-03-26T13:09:00.378Z,96424.22
2023-03-26T13:11:36.052Z,96418.16
2023-03-26T13:14:07.610Z,96422.88
2023-03-26T13:16:36.468Z,96415.63
2023-03-26T13:19:32.625Z,96410.47
2023-03-26T13:21:59.070Z,96405.38
2023-03-26T13:24:47.084Z,96402.16
2023-03-26T13:27:16.745Z,96394.94
2023-03-26T13:29:56.210Z,96392.91
2023-03-26T13:32:22.715Z,96386.50
2023-03-26T13:35:08.308Z,96375.56
2023-03-26T13:37:37.751Z,96368.84
2023-03-26T13:40:10.025Z,96364.94
2023-03-26T13:42:37.809Z,96359.44
2023-03-26T13:45:16.515Z,96346.00
2023-03-26T13:47:45.863Z,96341.00
2023-03-26T13:50:18.476Z,96336.31
2023-03-26T13:52:48.208Z,96343.50
2023-03-26T13:55:14.613Z,96334.56
2023-03-26T13:57:50.160Z,96346.06
2023-03-26T14:00:23.173Z,96337.88
2023-03-26T14:02:53.513Z,96333.59
2023-03-26T14:05:23.098Z,96330.84
2023-03-26T14:07:52.583Z,96322.09
2023-03-26T14:10:31.026Z,96321.03
2023-03-26T14:13:16.239Z,96316.72
2023-03-26T14:15:56.051Z,96308.22
2023-03-26T14:18:27.484Z,96302.66
2023-03-26T14:21:08.317Z,96303.34
2023-03-26T14:23:35.115Z,96313.94
2023-03-26T14:26:01.565Z,96296.50
2023-03-26T14:28:34.201Z,96301.13
2023-03-26T14:31:00.646Z,96294.50
2023-03-26T14:33:27.908Z,96285.41
2023-03-26T14:36:14.890Z,96279.75
2023-03-26T14:38:44.403Z,96285.41
2023-03-26T14:41:23.068Z,96273.69
2023-03-26T14:43:59.536Z,96268.34
2023-03-26T14:46:38.240Z,96264.03
2023-03-26T14:49:16.548Z,96253.84
2023-03-26T14:51:53.167Z,96251.22
2023-03-26T14:54:22.492Z,96231.66
2023-03-26T14:56:52.141Z,96226.06
2023-03-26T14:59:24.732Z,96226.19
2023-03-26T15:01:57.460Z,96217.22
2023-03-26T15:04:27.055Z,96217.69
2023-03-26T15:07:02.829Z,96216.28
2023-03-26T15:09:49.876Z,96217.34
2023-03-26T15:12:22.072Z,96215.69
2023-03-26T15:15:10.449Z,96213.28
2023-03-26T15:17:43.197Z,96214.63
2023-03-26T15:20:25.942Z,96217.06
2023-03-26T15:23:01.555Z,96215.75
2023-03-26T15:25:27.992Z,96210.44
2023-03-26T15:28:13.427Z,96208.63
2023-03-26T15:31:06.609Z,96214.84
2023-03-26T15:33:35.975Z,96208.63
2023-03-26T15:36:14.055Z,96207.78
2023-03-26T15:38:52.766Z,96212.88
2023-03-26T15:41:38.180Z,96218.91
2023-03-26T15:44:24.938Z,96217.28
2023-03-26T15:46:51.804Z,96209.41
2023-03-26T15:49:36.659Z,96203.69
2023-03-26T15:52:22.052Z,96199.53
2023-03-26T15:54:48.508Z,96200.63
2023-03-26T15:57:18.042Z,96198.78
2023-03-26T15:59:56.337Z,96205.53
2023-03-26T16:02:39.902Z,96213.53
2023-03-26T16:05:25.253Z,96209.69
2023-03-26T16:07:58.878Z,96214.56
2023-03-26T16:10:40.776Z,96209.84
2023-03-26T16:13:19.198Z,96215.25
2023-03-26T16:16:12.186Z,96218.03
2023-03-26T16:18:53.494Z,96216.72
2023-03-26T16:21:34.406Z,96234.72
2023-03-26T16:26:47.489Z,96255.03
2023-03-26T16:29:18.127Z,96253.28
2023-03-26T16:32:00.580Z,96257.06
2023-03-26T16:34:38.849Z,96252.13
2023-03-26T16:37:08.014Z,96248.72
2023-03-26T16:39:38.943Z,96252.81
2023-03-26T16:42:29.554Z,96255.22
2023-03-26T16:45:02.293Z,96259.28
2023-03-26T16:47:38.629Z,96251.66
2023-03-26T16:50:21.273Z,96248.88
2023-03-26T16:52:47.833Z,96251.41
2023-03-26T16:55:29.864Z,96257.31
2023-03-26T16:58:11.610Z,96260.38
2023-03-26T17:00:43.897Z,96260.72
2023-03-26T17:03:31.744Z,96262.91
2023-03-26T17:06:03.412Z,96262.41
2023-03-26T17:08:37.734Z,96258.38
2023-03-26T17:11:04.240Z,96267.41
2023-03-26T17:13:31.038Z,96275.13
2023-03-26T17:16:14.712Z,96264.69
2023-03-26T17:18:41.410Z,96262.06
2023-03-26T17:21:15.565Z,96267.31
2023-03-26T17:23:45.317Z,96262.81
2023-03-26T17:26:18.805Z,96275.53
2023-03-26T17:28:50.687Z,96275.53
2023-03-26T17:31:40.307Z,96272.94
2023-03-26T17:34:25.391Z,96264.34
2023-03-26T17:36:56.341Z,96265.09
2023-03-26T17:39:41.932Z,96259.28
2023-03-26T17:42:18.764Z,96263.41
2023-03-26T17:44:55.612Z,96270.56
2023-03-26T17:47:41.212Z,96267.03
2023-03-26T17:50:13.875Z,96270.38
2023-03-26T17:52:47.892Z,96271.34
2023-03-26T17:55:16.764Z,96279.16
2023-03-26T17:57:44.180Z,96282.84
2023-03-26T18:00:18.411Z,96286.91
2023-03-26T18:02:48.347Z,96278.91
2023-03-26T18:05:16.704Z,96278.97
2023-03-26T18:07:49.314Z,96275.09
2023-03-26T18:10:35.114Z,96264.56
2023-03-26T18:13:04.572Z,96245.84
2023-03-26T18:15:49.868Z,96248.72
2023-03-26T18:18:19.897Z,96249.28
2023-03-26T18:20:47.924Z,96247.09
2023-03-26T18:23:26.590Z,96246.06
2023-03-26T18:25:58.087Z,96244.94
2023-03-26T18:28:34.204Z,96242.66
2023-03-26T18:31:16.437Z,96248.41
2023-03-26T18:33:44.863Z,96247.50
2023-03-26T18:36:11.844Z,96236.31
2023-03-26T18:38:40.022Z,96231.16
2023-03-26T18:41:09.725Z,96235.72
2023-03-26T18:43:43.902Z,96228.75
2023-03-26T18:46:12.546Z,96231.00
2023-03-26T18:48:39.439Z,96230.00
2023-03-26T18:51:06.707Z,96232.38
2023-03-26T18:53:38.903Z,96233.59
2023-03-26T18:56:24.173Z,96233.59
2023-03-26T18:58:51.765Z,96233.38
2023-03-26T19:01:25.374Z,96234.22
2023-03-26T19:03:53.600Z,96235.63
2023-03-26T19:06:20.925Z,96229.84
2023-03-26T19:08:47.946Z,96231.78
2023-03-26T19:11:16.442Z,96241.56
2023-03-26T19:13:42.987Z,96241.03
2023-03-26T19:16:17.333Z,96225.53
2023-03-26T19:18:44.499Z,96230.16
2023-03-26T19:21:11.098Z,96245.97
2023-03-26T19:23:38.899Z,96236.31
2023-03-26T19:26:06.840Z,96243.94
2023-03-26T19:28:39.048Z,96235.22
2023-03-26T19:31:10.324Z,96230.31
2023-03-26T19:33:39.311Z,96229.56
2023-03-26T19:36:17.756Z,96229.63
2023-03-26T19:38:54.554Z,96223.41
2023-03-26T19:41:21.485Z,96221.88
2023-03-26T19:43:48.774Z,96218.38
2023-03-26T19:46:15.356Z,96213.56
2023-03-26T19:48:45.596Z,96218.72
2023-03-26T19:51:32.754Z,96218.44
2023-03-26T19:54:00.868Z,96216.38
2023-03-26T19:56:27.473Z,96213.97
2023-03-26T19:58:54.422Z,96207.00
2023-03-26T20:01:23.555Z,96207.00
2023-03-26T20:03:58.891Z,96206.78
2023-03-26T20:08:57.892Z,96202.44
2023-03-26T20:11:30.588Z,96206.25
2023-03-26T20:13:57.046Z,96200.97
2023-03-26T20:16:25.656Z,96200.47
2023-03-26T20:18:52.193Z,96193.66
2023-03-26T20:21:18.664Z,96202.63
2023-03-26T20:23:45.204Z,96185.28
2023-03-26T20:26:13.620Z,96191.75
2023-03-26T20:28:47.508Z,96181.97
2023-03-26T20:31:25.177Z,96174.06
2023-03-26T20:33:52.579Z,96172.44
2023-03-26T20:36:33.916Z,96159.19
2023-03-26T20:39:02.513Z,96151.13
2023-03-26T20:41:29.060Z,96139.00
2023-03-26T20:43:55.646Z,96142.72
2023-03-26T20:46:23.279Z,96128.94
2023-03-26T20:48:58.082Z,96130.75
2023-03-26T20:51:24.567Z,96131.13
2023-03-26T20:53:51.015Z,96134.59
2023-03-26T20:56:18.552Z,96127.06
2023-03-26T20:58:45.670Z,96129.56
2023-03-26T21:01:13.161Z,96137.63
2023-03-26T21:03:40.684Z,96148.16
2023-03-26T21:06:13.295Z,96150.69
2023-03-26T21:08:41.306Z,96158.22
2023-03-26T21:11:13.553Z,96152.50
2023-03-26T21:14:00.152Z,96140.69
2023-03-26T21:16:26.818Z,96144.69
2023-03-26T21:18:53.519Z,96145.19
2023-03-26T21:21:26.102Z,96135.56
2023-03-26T21:23:59.377Z,96124.63
2023-03-26T21:26:45.164Z,96134.34
2023-03-26T21:29:12.067Z,96123.19
2023-03-26T21:31:38.696Z,96126.84
2023-03-26T21:34:05.610Z,96116.56
2023-03-26T21:36:32.342Z,96116.47
2023-03-26T21:38:59.104Z,96124.09
2023-03-26T21:41:25.682Z,96107.94
2023-03-26T21:43:52.147Z,96128.50
2023-03-26T21:46:18.803Z,96122.78
2023-03-26T21:48:45.488Z,96121.94
2023-03-26T21:51:14.761Z,96119.56
2023-03-26T21:53:42.445Z,96118.50
2023-03-26T21:56:11.915Z,96113.78
2023-03-26T21:58:47.758Z,96113.97
2023-03-26T22:01:20.633Z,96117.41
2023-03-26T22:03:56.410Z,96120.25
2023-03-26T22:06:22.840Z,96114.09
2023-03-26T22:08:49.360Z,96117.41
2023-03-26T22:11:15.795Z,96118.19
2023-03-26T22:13:42.345Z,96109.19
2023-03-26T22:16:09.821Z,96122.06
2023-03-26T22:18:36.608Z,96124.16
2023-03-26T22:21:03.340Z,96113.59
2023-03-26T22:23:34.199Z,96106.34
2023-03-26T22:26:00.781Z,96096.66
2023-03-26T22:28:27.656Z,96086.50
2023-03-26T22:30:54.427Z,96089.50
2023-03-26T22:33:21.270Z,96073.66
2023-03-26T22:35:47.820Z,96071.88
2023-03-26T22:38:14.943Z,96049.72
2023-03-26T22:40:41.437Z,96055.44
2023-03-26T22:43:07.906Z,96050.97
2023-03-26T22:45:34.836Z,96045.31
2023-03-26T22:48:04.484Z,96049.63
2023-03-26T22:50:31.817Z,96047.00
2023-03-26T22:52:58.298Z,96040.06
2023-03-26T22:55:28.632Z,96035.69
2023-03-26T22:57:56.355Z,96036.97
2023-03-26T23:00:22.863Z,96036.00
2023-03-26T23:02:49.995Z,96020.47
2023-03-26T23:05:19.558Z,96014.47
2023-03-26T23:07:46.234Z,96005.94
2023-03-26T23:10:13.317Z,96002.78
2023-03-26T23:12:40.243Z,96008.53
2023-03-26T23:15:07.979Z,96007.34
2023-03-26T23:17:35.523Z,96016.41
2023-03-26T23:20:03.099Z,96022.97
2023-03-26T23:22:29.578Z,96022.13
2023-03-26T23:24:56.110Z,96022.59
2023-03-26T23:27:22.859Z,96020.16
2023-03-26T23:29:49.422Z,96014.28
2023-03-26T23:32:23.976Z,96016.47
2023-03-26T23:34:52.565Z,96002.25
2023-03-26T23:37:22.940Z,96000.75
2023-03-26T23:39:49.891Z,96009.38
2023-03-26T23:42:16.454Z,96005.75
2023-03-26T23:44:56.590Z,96021.47
2023-03-26T23:47:23.169Z,96024.25
2023-03-26T23:49:49.824Z,96020.63
2023-03-26T23:52:16.282Z,96025.50
2023-03-26T23:54:42.725Z,96020.06
2023-03-26T23:57:09.365Z,96011.47
2023-03-26T23:59:35.961Z,96002.53
